createdAt,value
2022-08-30T00:00:03.049Z,4.27
2022-08-30T00:02:36.527Z,4.33
2022-08-30T00:05:05.730Z,4.57
2022-08-30T00:07:34.786Z,4.40
2022-08-30T00:10:03.620Z,4.13
2022-08-30T00:12:33.008Z,4.50
2022-08-30T00:15:01.655Z,4.37
2022-08-30T00:17:30.283Z,4.60
2022-08-30T00:20:00.483Z,4.50
2022-08-30T00:22:29.008Z,4.10
2022-08-30T00:24:57.644Z,4.47
2022-08-30T00:27:26.340Z,4.67
2022-08-30T00:29:55.251Z,4.13
2022-08-30T00:32:24.613Z,4.40
2022-08-30T00:34:54.811Z,4.30
2022-08-30T00:37:24.912Z,4.47
2022-08-30T00:39:53.515Z,4.37
2022-08-30T00:42:22.588Z,4.50
2022-08-30T00:44:51.634Z,4.10
2022-08-30T00:47:21.210Z,4.57
2022-08-30T00:49:53.208Z,4.60
2022-08-30T00:52:24.986Z,4.50
2022-08-30T00:54:53.964Z,4.50
2022-08-30T00:57:22.654Z,4.50
2022-08-30T00:59:51.671Z,4.60
2022-08-30T01:02:23.898Z,4.60
2022-08-30T01:04:53.239Z,4.20
2022-08-30T01:07:21.737Z,3.83
2022-08-30T01:09:51.882Z,4.47
2022-08-30T01:12:20.479Z,4.00
2022-08-30T01:14:50.176Z,4.37
2022-08-30T01:17:21.440Z,3.87
2022-08-30T01:19:56.794Z,4.20
2022-08-30T01:22:31.658Z,4.13
2022-08-30T01:25:04.020Z,4.20
2022-08-30T01:27:40.092Z,4.30
2022-08-30T01:30:10.256Z,4.50
2022-08-30T01:32:43.077Z,4.20
2022-08-30T01:35:12.422Z,4.10
2022-08-30T01:37:41.166Z,4.40
2022-08-30T01:40:12.909Z,4.47
2022-08-30T01:42:41.657Z,4.70
2022-08-30T01:45:11.836Z,4.40
2022-08-30T01:47:40.958Z,4.23
2022-08-30T01:50:10.927Z,4.40
2022-08-30T01:52:41.285Z,4.33
2022-08-30T01:55:12.100Z,4.60
2022-08-30T01:57:40.753Z,4.30
2022-08-30T02:00:12.788Z,4.67
2022-08-30T02:02:41.467Z,4.37
2022-08-30T02:05:10.829Z,4.50
2022-08-30T02:07:39.409Z,4.90
2022-08-30T02:10:08.935Z,4.60
2022-08-30T02:12:38.884Z,4.83
2022-08-30T02:15:10.132Z,5.00
2022-08-30T02:17:38.724Z,4.80
2022-08-30T02:20:08.715Z,4.67
2022-08-30T02:22:37.711Z,4.50
2022-08-30T02:25:18.627Z,5.00
2022-08-30T02:27:51.385Z,4.70
2022-08-30T02:30:20.035Z,4.40
2022-08-30T02:32:48.634Z,4.90
2022-08-30T02:35:17.458Z,4.77
2022-08-30T02:37:46.132Z,4.63
2022-08-30T02:40:14.989Z,4.87
2022-08-30T02:42:43.796Z,5.13
2022-08-30T02:45:13.973Z,5.13
2022-08-30T02:47:46.702Z,5.17
2022-08-30T02:50:16.464Z,5.47
2022-08-30T02:52:48.395Z,5.40
2022-08-30T02:55:18.602Z,5.30
2022-08-30T02:57:47.974Z,5.13
2022-08-30T03:00:21.777Z,5.23
2022-08-30T03:02:50.509Z,5.13
2022-08-30T03:05:20.216Z,5.50
2022-08-30T03:07:49.134Z,5.53
2022-08-30T03:10:18.655Z,4.93
2022-08-30T03:12:48.019Z,5.07
2022-08-30T03:15:19.244Z,5.43
2022-08-30T03:17:47.819Z,5.60
2022-08-30T03:20:16.369Z,4.90
2022-08-30T03:22:45.244Z,5.50
2022-08-30T03:25:14.432Z,5.90
2022-08-30T03:27:43.020Z,6.13
2022-08-30T03:30:12.706Z,5.93
2022-08-30T03:32:43.309Z,5.93
2022-08-30T03:35:12.791Z,5.90
2022-08-30T03:37:41.661Z,5.37
2022-08-30T03:40:13.244Z,4.63
2022-08-30T03:42:43.959Z,5.47
2022-08-30T03:45:13.724Z,5.20
2022-08-30T03:47:43.986Z,5.93
2022-08-30T03:50:14.152Z,5.80
2022-08-30T03:52:43.161Z,5.00
2022-08-30T03:55:11.884Z,5.57
2022-08-30T03:57:43.681Z,5.17
2022-08-30T04:00:20.148Z,5.07
2022-08-30T04:02:53.999Z,5.80
2022-08-30T04:05:25.675Z,5.20
2022-08-30T04:07:56.839Z,5.47
2022-08-30T04:10:26.613Z,5.57
2022-08-30T04:12:55.657Z,5.77
2022-08-30T04:15:24.275Z,5.60
2022-08-30T04:17:55.034Z,5.90
2022-08-30T04:20:23.560Z,5.90
2022-08-30T04:22:53.592Z,6.53
2022-08-30T04:25:22.123Z,6.30
2022-08-30T04:27:51.319Z,6.53
2022-08-30T04:30:20.332Z,7.10
2022-08-30T04:32:49.051Z,6.83
2022-08-30T04:35:19.400Z,6.60
2022-08-30T04:37:47.937Z,6.50
2022-08-30T04:40:17.028Z,6.90
2022-08-30T04:42:45.643Z,6.40
2022-08-30T04:45:16.877Z,6.70
2022-08-30T04:47:45.817Z,6.40
2022-08-30T04:50:17.321Z,5.90
2022-08-30T04:52:47.659Z,6.33
2022-08-30T04:55:20.085Z,6.30
2022-08-30T04:57:49.315Z,6.67
2022-08-30T05:00:20.539Z,8.03
2022-08-30T05:02:49.991Z,7.97
2022-08-30T05:05:36.910Z,7.03
2022-08-30T05:08:07.428Z,7.63
2022-08-30T05:10:39.199Z,7.60
2022-08-30T05:13:08.110Z,7.27
2022-08-30T05:15:37.436Z,7.10
2022-08-30T05:18:07.717Z,7.03
2022-08-30T05:20:37.592Z,7.00
2022-08-30T05:23:08.372Z,6.60
2022-08-30T05:25:41.071Z,6.50
2022-08-30T05:28:10.800Z,7.20
2022-08-30T05:30:39.601Z,6.37
2022-08-30T05:33:08.330Z,7.37
2022-08-30T05:35:36.858Z,6.90
2022-08-30T05:38:05.565Z,5.77
2022-08-30T05:40:42.101Z,6.13
2022-08-30T05:43:11.303Z,6.30
2022-08-30T05:45:39.927Z,6.07
2022-08-30T05:48:08.668Z,6.17
2022-08-30T05:50:39.899Z,6.27
2022-08-30T05:53:08.793Z,6.37
2022-08-30T05:55:41.913Z,5.50
2022-08-30T05:58:10.448Z,5.13
2022-08-30T06:00:38.988Z,5.60
2022-08-30T06:03:08.441Z,5.63
2022-08-30T06:05:38.909Z,5.30
2022-08-30T06:08:08.956Z,4.97
2022-08-30T06:10:39.034Z,5.20
2022-08-30T06:13:07.693Z,5.27
2022-08-30T06:15:36.262Z,5.30
2022-08-30T06:18:05.194Z,4.90
2022-08-30T06:20:33.860Z,4.30
2022-08-30T06:23:02.434Z,4.20
2022-08-30T06:25:42.167Z,4.40
2022-08-30T06:28:13.231Z,4.20
2022-08-30T06:30:43.317Z,4.00
2022-08-30T06:33:12.314Z,3.97
2022-08-30T06:35:56.639Z,4.40
2022-08-30T06:38:27.292Z,3.70
2022-08-30T06:40:56.029Z,4.00
2022-08-30T06:43:26.063Z,3.80
2022-08-30T06:45:56.245Z,3.90
2022-08-30T06:48:24.842Z,4.23
2022-08-30T06:50:55.494Z,3.87
2022-08-30T06:53:24.596Z,3.83
2022-08-30T06:55:58.691Z,3.73
2022-08-30T06:58:29.673Z,4.13
2022-08-30T07:00:59.221Z,3.83
2022-08-30T07:03:27.989Z,4.20
2022-08-30T07:05:57.829Z,4.10
2022-08-30T07:08:27.235Z,3.80
2022-08-30T07:10:56.124Z,4.10
2022-08-30T07:13:25.701Z,4.30
2022-08-30T07:15:55.737Z,4.13
2022-08-30T07:18:41.669Z,4.37
2022-08-30T07:21:12.927Z,4.23
2022-08-30T07:23:41.849Z,4.00
2022-08-30T07:26:13.543Z,4.30
2022-08-30T07:28:47.169Z,4.10
2022-08-30T07:31:23.375Z,4.50
2022-08-30T07:33:52.376Z,4.13
2022-08-30T07:36:22.262Z,4.28
2022-08-30T07:38:51.912Z,4.40
2022-08-30T07:41:23.786Z,4.15
2022-08-30T07:43:52.673Z,4.00
2022-08-30T07:46:23.006Z,4.30
2022-08-30T07:48:54.395Z,4.30
2022-08-30T07:51:26.299Z,4.40
2022-08-30T07:53:55.583Z,3.80
2022-08-30T07:56:25.628Z,4.35
2022-08-30T07:58:54.824Z,4.00
2022-08-30T08:01:25.355Z,3.70
2022-08-30T08:03:53.985Z,4.20
2022-08-30T08:06:24.349Z,4.40
2022-08-30T08:08:54.393Z,3.97
2022-08-30T08:11:27.560Z,4.20
2022-08-30T08:13:59.477Z,4.30
2022-08-30T08:16:31.888Z,4.10
2022-08-30T08:19:00.681Z,4.10
2022-08-30T08:21:29.906Z,4.20
2022-08-30T08:23:58.937Z,4.15
2022-08-30T08:26:27.616Z,3.95
2022-08-30T08:28:56.170Z,4.43
2022-08-30T08:31:33.315Z,4.60
2022-08-30T08:34:05.526Z,4.50
2022-08-30T08:36:35.703Z,4.50
2022-08-30T08:39:06.518Z,4.22
2022-08-30T08:41:51.372Z,4.50
2022-08-30T08:44:34.767Z,3.92
2022-08-30T08:47:13.647Z,4.20
2022-08-30T08:49:46.816Z,4.07
2022-08-30T08:52:38.548Z,4.20
2022-08-30T08:55:11.942Z,4.82
2022-08-30T08:57:42.169Z,4.70
2022-08-30T09:00:14.276Z,4.25
2022-08-30T09:02:47.008Z,4.05
2022-08-30T09:05:20.221Z,4.72
2022-08-30T09:07:53.234Z,4.30
2022-08-30T09:10:40.592Z,4.70
2022-08-30T09:13:16.995Z,4.70
2022-08-30T09:15:52.444Z,4.50
2022-08-30T09:18:45.364Z,4.75
2022-08-30T09:21:16.294Z,4.80
2022-08-30T09:23:51.931Z,4.38
2022-08-30T09:26:31.591Z,4.30
2022-08-30T09:29:01.361Z,4.13
2022-08-30T09:31:32.064Z,4.45
2022-08-30T09:34:05.492Z,5.03
2022-08-30T09:36:37.105Z,4.15
2022-08-30T09:39:08.953Z,4.72
2022-08-30T09:41:42.713Z,3.75
2022-08-30T09:44:16.220Z,4.43
2022-08-30T09:46:47.667Z,4.70
2022-08-30T09:49:38.783Z,4.63
2022-08-30T09:52:36.087Z,4.25
2022-08-30T09:55:19.265Z,3.90
2022-08-30T09:57:58.106Z,3.97
2022-08-30T10:00:34.481Z,4.50
2022-08-30T10:03:36.263Z,4.30
2022-08-30T10:06:23.699Z,4.90
2022-08-30T10:09:02.739Z,4.40
2022-08-30T10:11:39.109Z,4.22
2022-08-30T10:14:42.571Z,4.70
2022-08-30T10:17:19.807Z,4.20
2022-08-30T10:20:07.838Z,4.40
2022-08-30T10:22:43.647Z,4.28
2022-08-30T10:25:18.857Z,4.40
2022-08-30T10:27:53.891Z,4.45
2022-08-30T10:30:24.075Z,4.57
2022-08-30T10:32:59.697Z,4.50
2022-08-30T10:35:38.313Z,4.80
2022-08-30T10:38:13.363Z,4.22
2022-08-30T10:41:06.568Z,4.20
2022-08-30T10:43:45.485Z,4.00
2022-08-30T10:46:28.637Z,4.60
2022-08-30T10:48:59.734Z,4.45
2022-08-30T10:51:35.995Z,4.47
2022-08-30T10:54:18.474Z,3.95
2022-08-30T10:56:51.521Z,3.80
2022-08-30T10:59:21.754Z,4.18
2022-08-30T11:02:12.229Z,4.20
2022-08-30T11:05:16.425Z,4.68
2022-08-30T11:07:53.885Z,3.50
2022-08-30T11:10:36.170Z,4.55
2022-08-30T11:13:07.317Z,4.10
2022-08-30T11:15:38.834Z,4.43
2022-08-30T11:18:15.316Z,4.07
2022-08-30T11:20:46.843Z,3.88
2022-08-30T11:23:30.541Z,3.83
2022-08-30T11:26:05.900Z,3.80
2022-08-30T11:29:02.064Z,3.88
2022-08-30T11:31:40.638Z,4.28
2022-08-30T11:34:09.768Z,3.70
2022-08-30T11:37:09.810Z,3.45
2022-08-30T11:40:07.734Z,3.72
2022-08-30T11:42:46.862Z,3.55
2022-08-30T11:45:46.667Z,3.58
2022-08-30T11:48:53.837Z,3.50
2022-08-30T11:52:26.343Z,3.97
2022-08-30T11:54:57.230Z,3.63
2022-08-30T11:57:37.409Z,3.63
2022-08-30T12:00:11.765Z,3.58
2022-08-30T12:02:48.974Z,4.00
2022-08-30T12:05:53.635Z,3.78
2022-08-30T12:09:02.313Z,3.80
2022-08-30T12:12:05.767Z,3.80
2022-08-30T12:14:47.545Z,3.50
2022-08-30T12:18:15.435Z,3.38
2022-08-30T12:20:48.520Z,4.22
2022-08-30T12:23:21.558Z,3.60
2022-08-30T12:25:50.703Z,3.58
2022-08-30T12:28:26.228Z,2.97
2022-08-30T12:30:55.393Z,3.30
2022-08-30T12:33:39.556Z,3.13
2022-08-30T12:36:14.446Z,3.55
2022-08-30T12:38:44.207Z,3.83
2022-08-30T12:41:21.258Z,3.55
2022-08-30T12:43:53.139Z,3.60
2022-08-30T12:46:23.147Z,3.72
2022-08-30T12:48:53.316Z,3.40
2022-08-30T12:51:41.217Z,3.70
2022-08-30T12:54:18.296Z,3.80
2022-08-30T12:57:14.069Z,3.65
2022-08-30T12:59:59.320Z,3.90
2022-08-30T13:02:42.928Z,3.40
2022-08-30T13:05:47.902Z,3.42
2022-08-30T13:08:22.689Z,2.90
2022-08-30T13:10:54.309Z,3.28
2022-08-30T13:13:45.468Z,3.58
2022-08-30T13:16:29.655Z,3.60
2022-08-30T13:19:22.799Z,3.67
2022-08-30T13:21:55.692Z,3.50
2022-08-30T13:24:25.644Z,3.03
2022-08-30T13:26:56.692Z,3.33
2022-08-30T13:29:28.231Z,3.00
2022-08-30T13:31:57.520Z,3.20
2022-08-30T13:34:26.214Z,2.70
2022-08-30T13:36:59.391Z,2.90
2022-08-30T13:39:28.081Z,2.85
2022-08-30T13:42:31.628Z,3.08
2022-08-30T13:44:48.162Z,3.10
2022-08-30T13:47:34.444Z,3.00
2022-08-30T13:50:05.497Z,3.00
2022-08-30T13:52:35.704Z,2.80
2022-08-30T13:55:04.945Z,2.83
2022-08-30T14:00:23.746Z,3.30
2022-08-30T14:02:57.449Z,3.10
2022-08-30T14:05:50.126Z,3.50
2022-08-30T14:11:13.707Z,3.28
2022-08-30T14:16:32.587Z,3.13
2022-08-30T14:19:02.725Z,2.55
2022-08-30T14:21:31.668Z,2.80
2022-08-30T14:24:01.927Z,2.60
2022-08-30T14:26:33.448Z,2.80
2022-08-30T14:29:03.760Z,3.20
2022-08-30T14:31:33.504Z,3.30
2022-08-30T14:34:04.093Z,3.03
2022-08-30T14:36:34.771Z,3.08
2022-08-30T14:39:08.306Z,2.85
2022-08-30T14:41:43.683Z,3.42
2022-08-30T14:44:13.463Z,3.45
2022-08-30T14:46:42.810Z,3.65
2022-08-30T14:49:12.264Z,3.65
2022-08-30T14:51:41.637Z,3.45
2022-08-30T14:54:11.729Z,3.80
2022-08-30T14:56:41.579Z,3.60
2022-08-30T14:59:10.846Z,3.40
2022-08-30T15:01:43.088Z,3.80
2022-08-30T15:04:13.082Z,3.50
2022-08-30T15:06:43.666Z,4.15
2022-08-30T15:09:18.607Z,3.50
2022-08-30T15:11:53.616Z,3.60
2022-08-30T15:14:24.187Z,3.78
2022-08-30T15:16:55.797Z,3.90
2022-08-30T15:19:24.569Z,3.83
2022-08-30T15:21:53.901Z,3.60
2022-08-30T15:24:29.861Z,3.50
2022-08-30T15:27:00.354Z,4.03
2022-08-30T15:29:30.626Z,3.42
2022-08-30T15:32:03.637Z,3.72
2022-08-30T15:34:34.713Z,3.47
2022-08-30T15:37:05.324Z,3.30
2022-08-30T15:39:38.015Z,2.88
2022-08-30T15:42:09.538Z,3.70
2022-08-30T15:44:38.483Z,3.63
2022-08-30T15:47:07.446Z,3.40
2022-08-30T15:49:36.280Z,3.60
2022-08-30T15:52:07.983Z,3.97
2022-08-30T15:54:38.534Z,4.03
2022-08-30T15:57:07.388Z,4.40
2022-08-30T15:59:36.244Z,4.55
2022-08-30T16:02:06.168Z,4.07
2022-08-30T16:04:35.380Z,4.50
2022-08-30T16:07:04.168Z,4.10
2022-08-30T16:09:32.949Z,4.30
2022-08-30T16:12:04.909Z,4.45
2022-08-30T16:14:34.220Z,4.75
2022-08-30T16:17:03.843Z,4.60
2022-08-30T16:19:33.614Z,4.22
2022-08-30T16:22:03.284Z,4.63
2022-08-30T16:24:32.978Z,4.78
2022-08-30T16:27:03.539Z,4.75
2022-08-30T16:29:32.062Z,4.90
2022-08-30T16:32:02.236Z,4.90
2022-08-30T16:34:31.055Z,5.18
2022-08-30T16:37:02.051Z,4.97
2022-08-30T16:39:30.811Z,4.85
2022-08-30T16:42:04.732Z,4.28
2022-08-30T16:44:36.584Z,4.80
2022-08-30T16:47:05.994Z,4.57
2022-08-30T16:49:35.819Z,4.70
2022-08-30T16:52:04.872Z,4.43
2022-08-30T16:54:36.454Z,4.75
2022-08-30T16:57:06.933Z,4.30
2022-08-30T16:59:35.715Z,4.50
2022-08-30T17:02:05.478Z,4.43
2022-08-30T17:04:34.648Z,4.75
2022-08-30T17:07:03.338Z,4.95
2022-08-30T17:09:35.748Z,4.57
2022-08-30T17:12:07.228Z,4.82
2022-08-30T17:14:36.030Z,5.55
2022-08-30T17:17:06.336Z,5.18
2022-08-30T17:19:41.153Z,4.85
2022-08-30T17:22:12.775Z,5.28
2022-08-30T17:24:42.653Z,5.00
2022-08-30T17:27:13.822Z,4.78
2022-08-30T17:29:42.745Z,4.90
2022-08-30T17:32:13.275Z,5.00
2022-08-30T17:34:41.919Z,5.03
2022-08-30T17:37:11.229Z,4.75
2022-08-30T17:39:39.845Z,4.32
2022-08-30T17:42:10.965Z,4.78
2022-08-30T17:44:42.250Z,4.80
2022-08-30T17:47:12.271Z,4.70
2022-08-30T17:49:41.475Z,4.90
2022-08-30T17:52:11.651Z,4.78
2022-08-30T17:54:41.389Z,5.03
2022-08-30T17:57:11.610Z,4.90
2022-08-30T17:59:43.286Z,4.38
2022-08-30T18:02:12.021Z,4.82
2022-08-30T18:07:29.890Z,4.40
2022-08-30T18:09:59.635Z,4.82
2022-08-30T18:12:28.677Z,4.57
2022-08-30T18:14:58.835Z,5.07
2022-08-30T18:17:28.504Z,4.65
2022-08-30T18:19:57.791Z,4.72
2022-08-30T18:22:26.815Z,4.85
2022-08-30T18:25:00.297Z,4.57
2022-08-30T18:27:31.127Z,4.75
2022-08-30T18:30:01.360Z,4.50
2022-08-30T18:32:32.837Z,4.72
2022-08-30T18:35:05.022Z,4.65
2022-08-30T18:37:35.216Z,4.22
2022-08-30T18:40:04.543Z,4.60
2022-08-30T18:42:33.396Z,4.70
2022-08-30T18:45:14.505Z,4.63
2022-08-30T18:47:45.495Z,4.35
2022-08-30T18:50:15.483Z,4.40
2022-08-30T18:52:44.986Z,4.38
2022-08-30T18:55:14.208Z,4.75
2022-08-30T18:57:42.824Z,4.40
2022-08-30T19:00:15.978Z,4.90
2022-08-30T19:02:44.598Z,4.70
2022-08-30T19:05:16.116Z,4.68
2022-08-30T19:07:46.575Z,4.57
2022-08-30T19:10:21.133Z,4.63
2022-08-30T19:12:50.061Z,4.32
2022-08-30T19:15:20.814Z,4.30
2022-08-30T19:17:49.904Z,4.63
2022-08-30T19:20:22.124Z,4.80
2022-08-30T19:23:09.632Z,4.18
2022-08-30T19:25:40.356Z,4.38
2022-08-30T19:28:09.157Z,4.72
2022-08-30T19:30:39.939Z,4.60
2022-08-30T19:33:08.452Z,4.40
2022-08-30T19:35:40.167Z,4.53
2022-08-30T19:38:08.609Z,4.30
2022-08-30T19:40:37.269Z,4.63
2022-08-30T19:43:06.940Z,4.45
2022-08-30T19:45:36.313Z,4.60
2022-08-30T19:48:06.531Z,5.07
2022-08-30T19:50:35.290Z,4.60
2022-08-30T19:53:06.928Z,4.78
2022-08-30T19:55:37.456Z,4.82
2022-08-30T19:58:06.038Z,4.60
2022-08-30T20:00:36.007Z,4.75
2022-08-30T20:03:09.177Z,4.50
2022-08-30T20:05:38.253Z,4.55
2022-08-30T20:08:06.919Z,4.22
2022-08-30T20:10:36.383Z,4.72
2022-08-30T20:13:07.672Z,4.60
2022-08-30T20:15:37.778Z,4.63
2022-08-30T20:18:14.545Z,4.80
2022-08-30T20:20:49.402Z,4.40
2022-08-30T20:23:21.594Z,4.90
2022-08-30T20:24:26.426Z,4.63
2022-08-30T20:25:52.369Z,4.75
2022-08-30T20:28:21.423Z,4.90
2022-08-30T20:30:50.332Z,4.38
2022-08-30T20:33:19.177Z,4.97
2022-08-30T20:35:49.921Z,4.60
2022-08-30T20:38:22.097Z,4.72
2022-08-30T20:40:58.674Z,4.80
2022-08-30T20:43:29.825Z,5.82
2022-08-30T20:45:58.679Z,5.20
2022-08-30T20:48:28.898Z,6.50
2022-08-30T20:50:59.268Z,6.95
2022-08-30T20:53:27.987Z,6.53
2022-08-30T20:55:56.680Z,11.20
2022-08-30T20:58:25.249Z,8.93
2022-08-30T21:00:55.115Z,9.35
2022-08-30T21:03:25.968Z,10.52
2022-08-30T21:05:56.208Z,12.88
2022-08-30T21:08:26.344Z,11.63
2022-08-30T21:10:55.049Z,10.25
2022-08-30T21:13:24.015Z,10.00
2022-08-30T21:15:53.344Z,10.10
2022-08-30T21:18:25.954Z,9.27
2022-08-30T21:20:54.653Z,11.03
2022-08-30T21:23:23.487Z,9.40
2022-08-30T21:25:53.429Z,10.00
2022-08-30T21:28:22.900Z,10.63
2022-08-30T21:30:51.527Z,12.67
2022-08-30T21:33:20.341Z,10.43
2022-08-30T21:36:06.113Z,9.37
2022-08-30T21:38:34.712Z,9.33
2022-08-30T21:41:04.733Z,7.63
2022-08-30T21:43:33.332Z,8.00
2022-08-30T21:46:06.970Z,9.63
2022-08-30T21:48:37.378Z,8.80
2022-08-30T21:51:08.512Z,8.77
2022-08-30T21:53:38.383Z,9.13
2022-08-30T21:56:16.316Z,10.03
2022-08-30T21:58:50.393Z,11.13
2022-08-30T22:01:24.110Z,11.73
2022-08-30T22:03:54.682Z,10.97
2022-08-30T22:06:25.218Z,10.23
2022-08-30T22:09:01.246Z,11.47
2022-08-30T22:11:32.812Z,12.30
2022-08-30T22:14:01.888Z,12.50
2022-08-30T22:16:30.943Z,9.70
2022-08-30T22:19:01.372Z,12.07
2022-08-30T22:21:34.725Z,12.57
2022-08-30T22:24:04.206Z,12.07
2022-08-30T22:26:35.095Z,12.87
2022-08-30T22:29:04.759Z,13.50
2022-08-30T22:31:33.745Z,13.80
2022-08-30T22:34:02.367Z,15.50
2022-08-30T22:36:33.453Z,14.80
2022-08-30T22:39:03.663Z,14.97
2022-08-30T22:41:34.574Z,16.10
2022-08-30T22:44:04.868Z,14.70
2022-08-30T22:46:34.900Z,14.20
2022-08-30T22:49:05.203Z,13.90
2022-08-30T22:51:34.658Z,15.20
2022-08-30T22:54:04.139Z,15.20
2022-08-30T22:56:35.296Z,16.50
2022-08-30T22:59:05.204Z,17.70
2022-08-30T23:01:37.184Z,17.30
2022-08-30T23:04:06.937Z,17.60
2022-08-30T23:06:36.369Z,15.03
2022-08-30T23:09:06.440Z,19.27
2022-08-30T23:11:36.993Z,19.33
2022-08-30T23:14:06.624Z,22.43
2022-08-30T23:16:35.804Z,20.53
2022-08-30T23:19:05.920Z,21.00
2022-08-30T23:21:34.727Z,23.03
2022-08-30T23:24:21.204Z,23.57
2022-08-30T23:27:08.595Z,21.37
2022-08-30T23:29:55.401Z,20.63
2022-08-30T23:32:41.707Z,21.17
2022-08-30T23:35:30.487Z,20.67
2022-08-30T23:38:17.413Z,19.43
2022-08-30T23:41:04.267Z,18.40
2022-08-30T23:43:52.197Z,20.07
2022-08-30T23:46:40.371Z,18.90
2022-08-30T23:49:26.305Z,17.87
2022-08-30T23:52:12.592Z,18.90
2022-08-30T23:54:58.763Z,21.47
2022-08-30T23:57:45.839Z,19.13
